Главная страница
METAR-TAF:

METAR-TAF

Аэропорты :

Гибралтар, Гибралтар

широта: 36-09N, долгота: 005-21W, высота над уровнем моря: 5 м

Текущие метеонаблюдения

Эта сводка был подготовлена 31 минут назад, в 11:50 UTC
Ветер 13 Узел от западный
Температура 17°C
Влажность 68%
Давление 1029 hPa
Видимость 10 км и более
небольшая облачность на высоте 2200 фута

METAR: LXGB 211150Z 27013KT 9999 FEW022 17/11 Q1029 NOSIG

Время: 13:21 (12:21 UTC)

Прогноз

Эта сводка был подготовлена 1 час и 46 минут назад, в 10:35 UTC
Прогноз действительный с 21-го 12 UTC до 21-го 21 UTC
Ветер 14 Узел от западный
Видимость 10 км и более
небольшая облачность на высоте 2200 фута
временами
С 21-го 12 UTC до 21-го 16 UTC
Ветер 18 Узел от западно-северо-западный с порывами до 28 Узел

TAF: LXGB 211035Z 2112/2121 28014KT 9999 FEW022 TEMPO 2112/2116 29018G28KT

Метеонаблюдения и прогнозы для более 4000 аэропортов (сводки METAR и TAF).

Имеющиеся станции представлены на карте желтыми и красными точками.

Чтобы увидеть название станции, наведите на нее мышь.

Затем щелкните, чтобы увидеть метеонаблюдения и метеопрогнозы.

Управление картой: чтобы увеличить масштаб, щелкните зеленые кнопки с черным крестиком; чтобы уменьшить масштаб, щелкните зеленую кнопку с тире; для просмотра соседних карт щелкайте зеленые стрелки.


METAR-TAF: